sensor_id;sensor_type;location;lat;lon;timestamp;P1;durP1;ratioP1;P2;durP2;ratioP2
70535;SDS011;58089;48.752;11.338;2022-11-27T05:02:27;130.80;;;16.35;;
70535;SDS011;58089;48.752;11.338;2022-11-27T05:04:52;82.00;;;12.90;;
70535;SDS011;58089;48.752;11.338;2022-11-27T05:07:18;81.85;;;11.93;;
70535;SDS011;58089;48.752;11.338;2022-11-27T05:09:44;81.53;;;11.13;;
70535;SDS011;58089;48.752;11.338;2022-11-27T05:12:09;92.67;;;12.43;;
70535;SDS011;58089;48.752;11.338;2022-11-27T05:14:34;109.07;;;11.70;;
70535;SDS011;58089;48.752;11.338;2022-11-27T05:17:00;200.63;;;18.80;;
70535;SDS011;58089;48.752;11.338;2022-11-27T05:19:27;70.97;;;10.48;;
70535;SDS011;58089;48.752;11.338;2022-11-27T05:21:53;118.35;;;15.15;;
70535;SDS011;58089;48.752;11.338;2022-11-27T05:24:19;125.60;;;13.00;;
70535;SDS011;58089;48.752;11.338;2022-11-27T05:26:46;142.88;;;14.65;;
70535;SDS011;58089;48.752;11.338;2022-11-27T05:29:12;103.00;;;10.27;;
70535;SDS011;58089;48.752;11.338;2022-11-27T05:31:38;113.07;;;13.10;;
70535;SDS011;58089;48.752;11.338;2022-11-27T05:34:03;104.10;;;11.97;;
70535;SDS011;58089;48.752;11.338;2022-11-27T05:36:29;103.00;;;11.32;;
70535;SDS011;58089;48.752;11.338;2022-11-27T05:38:54;58.83;;;7.80;;
70535;SDS011;58089;48.752;11.338;2022-11-27T05:41:20;70.10;;;8.80;;
70535;SDS011;58089;48.752;11.338;2022-11-27T05:43:45;83.95;;;10.75;;
70535;SDS011;58089;48.752;11.338;2022-11-27T05:46:12;113.17;;;12.63;;
70535;SDS011;58089;48.752;11.338;2022-11-27T05:48:38;79.55;;;10.40;;
70535;SDS011;58089;48.752;11.338;2022-11-27T05:51:03;63.67;;;8.90;;
70535;SDS011;58089;48.752;11.338;2022-11-27T05:53:28;74.93;;;9.57;;
70535;SDS011;58089;48.752;11.338;2022-11-27T05:55:59;96.35;;;9.82;;
70535;SDS011;58089;48.752;11.338;2022-11-27T05:58:25;90.13;;;9.70;;
70535;SDS011;58089;48.752;11.338;2022-11-27T06:00:50;56.90;;;9.80;;
70535;SDS011;58089;48.752;11.338;2022-11-27T06:03:16;85.47;;;10.90;;
70535;SDS011;58089;48.752;11.338;2022-11-27T06:05:41;123.67;;;11.57;;
70535;SDS011;58089;48.752;11.338;2022-11-27T06:08:06;102.57;;;11.53;;
70535;SDS011;58089;48.752;11.338;2022-11-27T06:10:32;85.30;;;10.67;;
70535;SDS011;58089;48.752;11.338;2022-11-27T06:12:57;72.50;;;8.77;;
70535;SDS011;58089;48.752;11.338;2022-11-27T06:15:23;75.63;;;10.33;;
70535;SDS011;58089;48.752;11.338;2022-11-27T06:17:48;46.87;;;7.90;;
70535;SDS011;58089;48.752;11.338;2022-11-27T06:20:13;70.13;;;10.20;;
70535;SDS011;58089;48.752;11.338;2022-11-27T06:22:39;49.93;;;7.70;;
70535;SDS011;58089;48.752;11.338;2022-11-27T06:25:04;40.57;;;9.30;;
70535;SDS011;58089;48.752;11.338;2022-11-27T06:27:33;54.93;;;9.83;;
70535;SDS011;58089;48.752;11.338;2022-11-27T06:29:59;52.92;;;9.07;;
70535;SDS011;58089;48.752;11.338;2022-11-27T06:32:24;47.17;;;9.37;;
70535;SDS011;58089;48.752;11.338;2022-11-27T06:34:50;54.73;;;8.90;;
70535;SDS011;58089;48.752;11.338;2022-11-27T15:29:34;22.85;;;20.65;;
70535;SDS011;58089;48.752;11.338;2022-11-27T15:32:01;15.90;;;9.25;;
70535;SDS011;58089;48.752;11.338;2022-11-27T15:34:30;13.25;;;6.75;;
70535;SDS011;58089;48.752;11.338;2022-11-27T15:36:59;12.60;;;6.30;;
70535;SDS011;58089;48.752;11.338;2022-11-27T15:42:00;12.98;;;6.22;;
70535;SDS011;58089;48.752;11.338;2022-11-27T15:44:27;12.25;;;6.45;;
70535;SDS011;58089;48.752;11.338;2022-11-27T15:46:54;13.35;;;6.90;;
70535;SDS011;58089;48.752;11.338;2022-11-27T15:49:20;17.27;;;8.40;;
70535;SDS011;58089;48.752;11.338;2022-11-27T15:51:47;13.40;;;7.60;;
70535;SDS011;58089;48.752;11.338;2022-11-27T15:54:13;14.52;;;8.40;;
70535;SDS011;58089;48.752;11.338;2022-11-27T15:56:38;11.20;;;6.23;;
70535;SDS011;58089;48.752;11.338;2022-11-27T15:59:03;14.57;;;8.17;;
70535;SDS011;58089;48.752;11.338;2022-11-27T16:01:28;11.50;;;6.50;;
70535;SDS011;58089;48.752;11.338;2022-11-27T16:03:54;11.47;;;6.83;;
70535;SDS011;58089;48.752;11.338;2022-11-27T16:06:19;11.18;;;5.65;;
70535;SDS011;58089;48.752;11.338;2022-11-27T16:08:51;14.52;;;6.38;;
70535;SDS011;58089;48.752;11.338;2022-11-27T16:11:20;12.50;;;7.97;;
70535;SDS011;58089;48.752;11.338;2022-11-27T16:13:45;12.57;;;6.18;;
70535;SDS011;58089;48.752;11.338;2022-11-27T16:16:10;12.27;;;5.97;;
70535;SDS011;58089;48.752;11.338;2022-11-27T16:18:36;10.27;;;5.40;;
70535;SDS011;58089;48.752;11.338;2022-11-27T16:21:05;11.30;;;6.07;;
70535;SDS011;58089;48.752;11.338;2022-11-27T16:23:36;12.95;;;6.35;;
70535;SDS011;58089;48.752;11.338;2022-11-27T16:26:02;12.32;;;7.10;;
70535;SDS011;58089;48.752;11.338;2022-11-27T16:28:30;13.33;;;5.97;;
70535;SDS011;58089;48.752;11.338;2022-11-27T16:30:56;11.27;;;6.05;;
70535;SDS011;58089;48.752;11.338;2022-11-27T16:33:28;12.52;;;6.25;;
70535;SDS011;58089;48.752;11.338;2022-11-27T16:35:54;14.98;;;7.40;;
70535;SDS011;58089;48.752;11.338;2022-11-27T16:38:20;15.50;;;7.27;;
70535;SDS011;58089;48.752;11.338;2022-11-27T16:40:46;15.00;;;7.20;;
70535;SDS011;58089;48.752;11.338;2022-11-27T16:43:11;15.15;;;8.00;;
70535;SDS011;58089;48.752;11.338;2022-11-27T16:45:37;15.30;;;8.20;;
70535;SDS011;58089;48.752;11.338;2022-11-27T16:48:02;15.57;;;7.82;;
70535;SDS011;58089;48.752;11.338;2022-11-27T16:50:28;13.90;;;7.20;;
70535;SDS011;58089;48.752;11.338;2022-11-27T16:52:54;14.02;;;6.93;;
70535;SDS011;58089;48.752;11.338;2022-11-27T16:55:21;13.93;;;6.75;;
70535;SDS011;58089;48.752;11.338;2022-11-27T16:57:46;12.10;;;6.22;;
70535;SDS011;58089;48.752;11.338;2022-11-27T17:00:12;13.67;;;7.37;;
70535;SDS011;58089;48.752;11.338;2022-11-27T17:02:38;13.15;;;7.03;;
70535;SDS011;58089;48.752;11.338;2022-11-27T17:05:04;15.67;;;7.57;;
70535;SDS011;58089;48.752;11.338;2022-11-27T17:07:29;16.13;;;7.50;;
70535;SDS011;58089;48.752;11.338;2022-11-27T17:09:54;15.50;;;7.77;;
70535;SDS011;58089;48.752;11.338;2022-11-27T17:12:20;15.77;;;8.30;;
70535;SDS011;58089;48.752;11.338;2022-11-27T17:14:45;14.70;;;7.20;;
70535;SDS011;58089;48.752;11.338;2022-11-27T17:17:11;11.68;;;6.57;;
70535;SDS011;58089;48.752;11.338;2022-11-27T17:19:36;12.80;;;6.80;;
70535;SDS011;58089;48.752;11.338;2022-11-27T17:22:02;21.93;;;7.50;;
70535;SDS011;58089;48.752;11.338;2022-11-27T17:24:27;14.47;;;8.00;;
70535;SDS011;58089;48.752;11.338;2022-11-27T17:26:53;10.27;;;5.50;;
70535;SDS011;58089;48.752;11.338;2022-11-27T17:29:19;13.70;;;6.77;;
70535;SDS011;58089;48.752;11.338;2022-11-27T17:31:45;14.68;;;7.72;;
70535;SDS011;58089;48.752;11.338;2022-11-27T17:34:11;13.57;;;7.55;;
70535;SDS011;58089;48.752;11.338;2022-11-27T17:36:38;13.07;;;6.85;;
70535;SDS011;58089;48.752;11.338;2022-11-27T17:39:06;12.97;;;6.90;;
70535;SDS011;58089;48.752;11.338;2022-11-27T17:41:31;13.70;;;6.88;;
70535;SDS011;58089;48.752;11.338;2022-11-27T17:43:56;12.70;;;6.73;;
70535;SDS011;58089;48.752;11.338;2022-11-27T17:46:23;13.27;;;7.20;;
70535;SDS011;58089;48.752;11.338;2022-11-27T17:48:49;12.95;;;6.22;;
70535;SDS011;58089;48.752;11.338;2022-11-27T17:51:16;10.97;;;5.47;;
70535;SDS011;58089;48.752;11.338;2022-11-27T17:53:42;13.75;;;6.53;;
70535;SDS011;58089;48.752;11.338;2022-11-27T17:56:11;14.00;;;6.97;;
70535;SDS011;58089;48.752;11.338;2022-11-27T17:58:38;14.32;;;7.15;;
70535;SDS011;58089;48.752;11.338;2022-11-27T18:01:04;14.33;;;7.17;;
70535;SDS011;58089;48.752;11.338;2022-11-27T18:03:30;12.70;;;6.47;;
70535;SDS011;58089;48.752;11.338;2022-11-27T18:06:00;13.73;;;6.93;;
70535;SDS011;58089;48.752;11.338;2022-11-27T18:08:26;13.80;;;7.57;;
70535;SDS011;58089;48.752;11.338;2022-11-27T18:10:51;15.40;;;7.03;;
70535;SDS011;58089;48.752;11.338;2022-11-27T18:13:16;15.57;;;6.73;;
70535;SDS011;58089;48.752;11.338;2022-11-27T18:15:42;13.43;;;7.23;;
70535;SDS011;58089;48.752;11.338;2022-11-27T18:18:07;12.60;;;6.85;;
70535;SDS011;58089;48.752;11.338;2022-11-27T18:20:34;14.10;;;6.77;;
70535;SDS011;58089;48.752;11.338;2022-11-27T18:22:59;13.18;;;7.15;;
70535;SDS011;58089;48.752;11.338;2022-11-27T18:25:24;14.30;;;7.27;;
70535;SDS011;58089;48.752;11.338;2022-11-27T18:27:50;15.90;;;7.57;;
70535;SDS011;58089;48.752;11.338;2022-11-27T18:30:15;14.53;;;7.13;;
70535;SDS011;58089;48.752;11.338;2022-11-27T18:32:40;15.50;;;7.53;;
70535;SDS011;58089;48.752;11.338;2022-11-27T18:35:06;13.07;;;7.03;;
70535;SDS011;58089;48.752;11.338;2022-11-27T18:37:33;14.40;;;7.37;;
70535;SDS011;58089;48.752;11.338;2022-11-27T18:39:59;13.93;;;7.50;;
70535;SDS011;58089;48.752;11.338;2022-11-27T18:42:24;16.17;;;7.27;;
70535;SDS011;58089;48.752;11.338;2022-11-27T18:44:50;14.65;;;7.38;;
70535;SDS011;58089;48.752;11.338;2022-11-27T18:47:16;16.70;;;7.47;;
70535;SDS011;58089;48.752;11.338;2022-11-27T18:49:41;18.00;;;8.27;;
70535;SDS011;58089;48.752;11.338;2022-11-27T18:52:07;14.93;;;8.05;;
70535;SDS011;58089;48.752;11.338;2022-11-27T18:54:32;14.43;;;7.20;;
70535;SDS011;58089;48.752;11.338;2022-11-27T18:56:58;14.55;;;7.57;;
70535;SDS011;58089;48.752;11.338;2022-11-27T18:59:23;15.90;;;8.13;;
70535;SDS011;58089;48.752;11.338;2022-11-27T19:01:49;15.47;;;8.63;;
70535;SDS011;58089;48.752;11.338;2022-11-27T19:04:14;15.73;;;8.53;;
70535;SDS011;58089;48.752;11.338;2022-11-27T19:06:40;15.50;;;8.30;;
70535;SDS011;58089;48.752;11.338;2022-11-27T19:09:09;15.60;;;7.78;;
70535;SDS011;58089;48.752;11.338;2022-11-27T19:11:35;15.68;;;8.15;;
70535;SDS011;58089;48.752;11.338;2022-11-27T19:14:01;13.45;;;7.28;;
70535;SDS011;58089;48.752;11.338;2022-11-27T19:16:31;17.33;;;8.33;;
70535;SDS011;58089;48.752;11.338;2022-11-27T19:18:58;15.35;;;8.30;;
70535;SDS011;58089;48.752;11.338;2022-11-27T19:21:24;16.17;;;8.80;;
70535;SDS011;58089;48.752;11.338;2022-11-27T19:23:51;14.70;;;8.05;;
70535;SDS011;58089;48.752;11.338;2022-11-27T19:26:18;14.33;;;7.60;;
70535;SDS011;58089;48.752;11.338;2022-11-27T19:28:51;16.02;;;8.50;;
70535;SDS011;58089;48.752;11.338;2022-11-27T19:31:18;16.95;;;9.38;;
70535;SDS011;58089;48.752;11.338;2022-11-27T19:33:49;17.05;;;8.43;;
70535;SDS011;58089;48.752;11.338;2022-11-27T19:36:17;14.88;;;8.40;;
70535;SDS011;58089;48.752;11.338;2022-11-27T19:38:44;16.83;;;8.37;;
70535;SDS011;58089;48.752;11.338;2022-11-27T19:41:10;17.23;;;8.95;;
70535;SDS011;58089;48.752;11.338;2022-11-27T19:43:37;17.33;;;9.37;;
70535;SDS011;58089;48.752;11.338;2022-11-27T19:46:10;15.90;;;8.93;;
70535;SDS011;58089;48.752;11.338;2022-11-27T19:48:39;16.13;;;9.68;;
70535;SDS011;58089;48.752;11.338;2022-11-27T19:51:04;17.90;;;9.23;;
70535;SDS011;58089;48.752;11.338;2022-11-27T19:53:29;15.53;;;9.20;;
70535;SDS011;58089;48.752;11.338;2022-11-27T19:55:55;15.70;;;8.63;;
70535;SDS011;58089;48.752;11.338;2022-11-27T19:58:20;13.17;;;7.20;;
70535;SDS011;58089;48.752;11.338;2022-11-27T20:00:45;15.33;;;7.97;;
70535;SDS011;58089;48.752;11.338;2022-11-27T20:03:11;15.70;;;8.60;;
70535;SDS011;58089;48.752;11.338;2022-11-27T20:05:36;15.00;;;7.87;;
70535;SDS011;58089;48.752;11.338;2022-11-27T20:08:02;15.63;;;8.93;;
70535;SDS011;58089;48.752;11.338;2022-11-27T20:10:28;16.73;;;7.70;;
70535;SDS011;58089;48.752;11.338;2022-11-27T20:12:54;19.13;;;9.30;;
70535;SDS011;58089;48.752;11.338;2022-11-27T20:15:23;15.50;;;8.35;;
70535;SDS011;58089;48.752;11.338;2022-11-27T20:17:49;16.33;;;8.80;;
70535;SDS011;58089;48.752;11.338;2022-11-27T20:20:14;20.90;;;12.80;;
70535;SDS011;58089;48.752;11.338;2022-11-27T20:22:40;16.90;;;9.05;;
70535;SDS011;58089;48.752;11.338;2022-11-27T20:25:06;17.93;;;9.60;;
70535;SDS011;58089;48.752;11.338;2022-11-27T20:27:31;15.50;;;9.13;;
70535;SDS011;58089;48.752;11.338;2022-11-27T20:29:57;19.17;;;10.90;;
70535;SDS011;58089;48.752;11.338;2022-11-27T20:32:24;24.20;;;14.65;;
70535;SDS011;58089;48.752;11.338;2022-11-27T20:34:49;17.40;;;10.20;;
70535;SDS011;58089;48.752;11.338;2022-11-27T20:37:14;20.90;;;11.07;;
70535;SDS011;58089;48.752;11.338;2022-11-27T20:39:39;23.47;;;15.17;;
70535;SDS011;58089;48.752;11.338;2022-11-27T20:42:05;22.30;;;13.90;;
70535;SDS011;58089;48.752;11.338;2022-11-27T20:44:30;24.40;;;17.30;;
70535;SDS011;58089;48.752;11.338;2022-11-27T20:46:56;19.63;;;10.00;;
70535;SDS011;58089;48.752;11.338;2022-11-27T20:49:21;16.30;;;10.00;;
70535;SDS011;58089;48.752;11.338;2022-11-27T20:51:46;20.53;;;11.47;;
70535;SDS011;58089;48.752;11.338;2022-11-27T20:54:14;21.00;;;12.77;;
70535;SDS011;58089;48.752;11.338;2022-11-27T20:56:39;21.13;;;12.63;;
70535;SDS011;58089;48.752;11.338;2022-11-27T20:59:07;23.30;;;13.20;;
70535;SDS011;58089;48.752;11.338;2022-11-27T21:01:33;19.47;;;10.87;;
70535;SDS011;58089;48.752;11.338;2022-11-27T21:04:01;23.47;;;11.97;;
70535;SDS011;58089;48.752;11.338;2022-11-27T21:06:33;21.48;;;12.10;;
70535;SDS011;58089;48.752;11.338;2022-11-27T21:09:00;25.23;;;11.90;;
70535;SDS011;58089;48.752;11.338;2022-11-27T21:11:28;28.05;;;15.20;;
70535;SDS011;58089;48.752;11.338;2022-11-27T21:13:55;21.00;;;10.65;;
70535;SDS011;58089;48.752;11.338;2022-11-27T21:16:22;20.27;;;11.40;;
70535;SDS011;58089;48.752;11.338;2022-11-27T21:18:57;24.27;;;12.55;;
70535;SDS011;58089;48.752;11.338;2022-11-27T21:21:23;23.27;;;11.68;;
70535;SDS011;58089;48.752;11.338;2022-11-27T21:23:49;22.80;;;12.53;;
70535;SDS011;58089;48.752;11.338;2022-11-27T21:26:14;22.38;;;11.70;;
70535;SDS011;58089;48.752;11.338;2022-11-27T21:28:40;23.63;;;12.00;;
70535;SDS011;58089;48.752;11.338;2022-11-27T21:31:07;21.52;;;12.48;;
70535;SDS011;58089;48.752;11.338;2022-11-27T21:33:34;21.40;;;10.48;;
70535;SDS011;58089;48.752;11.338;2022-11-27T21:36:00;22.88;;;12.40;;
70535;SDS011;58089;48.752;11.338;2022-11-27T21:38:25;21.40;;;11.47;;
70535;SDS011;58089;48.752;11.338;2022-11-27T21:40:51;24.27;;;11.13;;
70535;SDS011;58089;48.752;11.338;2022-11-27T21:43:16;25.33;;;12.10;;
70535;SDS011;58089;48.752;11.338;2022-11-27T21:45:41;23.67;;;12.73;;
70535;SDS011;58089;48.752;11.338;2022-11-27T21:48:07;23.05;;;12.07;;
70535;SDS011;58089;48.752;11.338;2022-11-27T21:50:32;23.20;;;12.27;;
70535;SDS011;58089;48.752;11.338;2022-11-27T21:52:58;25.10;;;12.33;;
70535;SDS011;58089;48.752;11.338;2022-11-27T21:55:23;24.07;;;11.90;;
70535;SDS011;58089;48.752;11.338;2022-11-27T21:57:48;24.33;;;11.30;;
70535;SDS011;58089;48.752;11.338;2022-11-27T22:00:13;21.90;;;11.70;;
70535;SDS011;58089;48.752;11.338;2022-11-27T22:02:39;25.45;;;12.13;;
70535;SDS011;58089;48.752;11.338;2022-11-27T22:05:05;25.20;;;11.80;;
70535;SDS011;58089;48.752;11.338;2022-11-27T22:07:30;24.83;;;12.93;;
70535;SDS011;58089;48.752;11.338;2022-11-27T22:09:55;25.65;;;12.82;;
70535;SDS011;58089;48.752;11.338;2022-11-27T22:12:21;24.97;;;12.87;;
70535;SDS011;58089;48.752;11.338;2022-11-27T22:14:48;22.10;;;11.67;;
70535;SDS011;58089;48.752;11.338;2022-11-27T22:17:13;23.50;;;11.57;;
70535;SDS011;58089;48.752;11.338;2022-11-27T22:19:39;25.17;;;12.90;;
70535;SDS011;58089;48.752;11.338;2022-11-27T22:22:06;25.23;;;12.82;;
70535;SDS011;58089;48.752;11.338;2022-11-27T22:24:31;27.57;;;12.87;;
70535;SDS011;58089;48.752;11.338;2022-11-27T22:26:57;24.10;;;11.83;;
70535;SDS011;58089;48.752;11.338;2022-11-27T22:29:22;23.07;;;12.57;;
70535;SDS011;58089;48.752;11.338;2022-11-27T22:31:47;26.03;;;12.07;;
70535;SDS011;58089;48.752;11.338;2022-11-27T22:34:13;25.23;;;12.20;;
70535;SDS011;58089;48.752;11.338;2022-11-27T22:36:39;23.40;;;12.18;;
70535;SDS011;58089;48.752;11.338;2022-11-27T22:39:05;24.33;;;12.03;;
70535;SDS011;58089;48.752;11.338;2022-11-27T22:41:32;25.92;;;12.52;;
70535;SDS011;58089;48.752;11.338;2022-11-27T22:43:58;26.92;;;13.93;;
70535;SDS011;58089;48.752;11.338;2022-11-27T22:46:27;24.77;;;13.20;;
70535;SDS011;58089;48.752;11.338;2022-11-27T22:48:57;25.75;;;12.55;;
70535;SDS011;58089;48.752;11.338;2022-11-27T22:51:24;27.17;;;13.37;;
70535;SDS011;58089;48.752;11.338;2022-11-27T22:53:50;27.02;;;13.15;;
70535;SDS011;58089;48.752;11.338;2022-11-27T22:56:15;25.77;;;13.33;;
70535;SDS011;58089;48.752;11.338;2022-11-27T22:58:41;24.15;;;12.25;;
